HYG weather

Hydaburg Seaplane Base
Hydaburg, Alaska, United States

Public forecast

Using degrees Fahrenheit for public forecast. Weather courtesy of forecast.io.

Current aviation weather report (METAR) for Hydaburg Seaplane Base

Retrieved 2019/10/22 08:56 UTC (44 minutes ago):

PAHY 220856Z AUTO 00000KT 10SM OVC032 06/04 A2981 RMK AO2 PRESRR SLP093 6//// T00560044 51091 PNO

Closest aviation forecast (TAF) to Hydaburg Seaplane Base

Closest forecast is Klawock Airport, 23.9 nm (44.3 km) NNW. Retrieved 2019/10/22 06:30 UTC (3 hours ago):

TAF PAKW 220528Z 2206/2306 03014KT 4SM -RA BR SCT015 OVC035 WS020/04030KT FM220800 30011KT P6SM BKN025 OVC040 WS020/30035KT FM221200 31010KT P6SM -SHRA BKN050 AMD LTD TO CLD VIS AND WIND